Time;durP1;ratioP1;P1;durP2;ratioP2;P2;SDS_P1;SDS_P2;PMS_P1;PMS_P2;Temp;Humidity;BMP_temperature;BMP_pressure;BME280_temperature;BME280_humidity;BME280_pressure;Samples;Min_cycle;Max_cycle;Signal;HPM_P1;HPM_P2
2021/12/10 00:00:10;;;;;;;21.77;6.68;;;8.30;90.60;;;;;;5034424;28;20033;-71
2021/12/10 00:02:38;;;;;;;18.20;7.70;;;8.30;90.60;;;;;;5033544;28;20449;-71
2021/12/10 00:05:08;;;;;;;21.48;12.02;;;8.30;90.60;;;;;;5043428;28;20033;-71
2021/12/10 00:07:34;;;;;;;26.98;13.82;;;8.30;90.60;;;;;;5037469;28;20034;-71
2021/12/10 00:10:05;;;;;;;27.73;14.18;;;8.40;90.60;;;;;;5033132;28;20025;-72
2021/12/10 00:12:36;;;;;;;30.85;14.38;;;8.40;90.60;;;;;;5034535;28;20080;-71
2021/12/10 00:15:04;;;;;;;27.50;11.07;;;8.40;90.60;;;;;;5047508;28;20579;-71
2021/12/10 00:17:30;;;;;;;25.75;11.93;;;8.40;90.50;;;;;;5034139;28;20095;-71
2021/12/10 00:19:58;;;;;;;29.48;15.13;;;8.40;90.50;;;;;;5047144;28;20033;-71
2021/12/10 00:22:41;;;;;;;30.60;15.15;;;8.40;90.60;;;;;;5033729;28;20041;-71
2021/12/10 00:25:13;;;;;;;28.75;14.95;;;8.40;90.60;;;;;;5043501;28;20494;-71
2021/12/10 00:27:40;;;;;;;28.35;12.75;;;8.40;90.60;;;;;;5051511;28;20067;-72
2021/12/10 00:30:12;;;;;;;18.52;10.20;;;8.40;90.60;;;;;;5053336;28;20036;-72
2021/12/10 00:32:47;;;;;;;33.85;14.20;;;8.40;90.50;;;;;;5036190;28;20127;-72
2021/12/10 00:35:21;;;;;;;26.15;12.90;;;8.50;90.60;;;;;;5047443;28;20032;-72
2021/12/10 00:37:47;;;;;;;27.45;14.63;;;8.50;90.60;;;;;;5040458;28;20064;-71
2021/12/10 00:40:14;;;;;;;28.20;13.48;;;8.50;90.50;;;;;;5038827;28;20052;-72
2021/12/10 00:42:40;;;;;;;26.23;13.68;;;8.50;90.50;;;;;;5038376;28;20393;-72
2021/12/10 00:45:09;;;;;;;24.27;11.75;;;8.50;90.50;;;;;;5034397;28;20040;-72
2021/12/10 00:47:35;;;;;;;25.58;13.30;;;8.50;90.50;;;;;;5033714;28;20065;-72
2021/12/10 00:50:03;;;;;;;25.25;12.88;;;8.50;90.50;;;;;;5049119;28;20044;-72
2021/12/10 00:52:28;;;;;;;36.13;15.52;;;8.50;90.50;;;;;;5043529;28;20109;-72
2021/12/10 00:54:54;;;;;;;26.55;13.07;;;8.50;90.50;;;;;;5038190;28;20052;-72
2021/12/10 00:57:20;;;;;;;20.77;11.20;;;8.60;90.50;;;;;;5052758;28;20025;-72
2021/12/10 00:59:48;;;;;;;22.58;12.82;;;8.50;90.50;;;;;;5048455;28;20068;-72
2021/12/10 01:02:17;;;;;;;27.45;13.70;;;8.60;90.60;;;;;;5053131;28;20724;-72
2021/12/10 01:04:48;;;;;;;27.95;14.27;;;8.50;90.50;;;;;;5038059;28;20033;-72
2021/12/10 01:07:18;;;;;;;48.83;15.25;;;8.60;90.80;;;;;;5033312;28;20120;-72
2021/12/10 01:09:48;;;;;;;32.03;13.45;;;8.50;90.50;;;;;;5032920;28;20063;-72
2021/12/10 01:12:22;;;;;;;20.52;9.95;;;8.50;90.50;;;;;;5043343;28;20039;-71
2021/12/10 01:28:46;;;;;;;27.88;13.77;;;8.50;90.50;;;;;;5047089;28;20045;-71
2021/12/10 01:31:11;;;;;;;38.13;15.02;;;8.50;90.50;;;;;;5048208;28;20056;-71
2021/12/10 01:33:38;;;;;;;18.75;9.85;;;8.50;90.50;;;;;;5051845;28;20053;-71
2021/12/10 01:36:07;;;;;;;25.63;13.25;;;8.60;90.60;;;;;;5048669;28;20083;-71
2021/12/10 01:38:39;;;;;;;35.08;15.65;;;8.60;90.60;;;;;;5044628;28;20116;-71
2021/12/10 01:41:08;;;;;;;31.58;12.93;;;8.50;90.50;;;;;;5051530;28;20365;-71
2021/12/10 01:43:38;;;;;;;24.27;13.50;;;8.60;90.60;;;;;;5038914;28;20036;-72
2021/12/10 01:46:10;;;;;;;25.63;13.77;;;8.60;90.60;;;;;;5040423;28;20033;-71
2021/12/10 01:48:50;;;;;;;29.92;12.63;;;8.50;90.60;;;;;;5040267;28;20044;-71
2021/12/10 01:51:18;;;;;;;25.88;13.70;;;8.50;90.60;;;;;;5043755;28;20430;-71
2021/12/10 01:53:48;;;;;;;29.70;13.38;;;8.50;90.60;;;;;;5043327;28;20036;-72
2021/12/10 01:56:22;;;;;;;24.48;10.80;;;8.50;90.60;;;;;;5047767;28;20040;-72
2021/12/10 01:58:48;;;;;;;23.42;8.52;;;8.60;90.60;;;;;;5042419;28;20079;-72
2021/12/10 02:01:25;;;;;;;23.52;13.00;;;8.50;90.60;;;;;;5048978;28;20041;-72
2021/12/10 02:03:53;;;;;;;19.23;6.10;;;8.50;90.60;;;;;;5052539;28;20094;-72
2021/12/10 02:06:19;;;;;;;23.27;11.93;;;8.50;90.60;;;;;;5052252;28;20076;-71
2021/12/10 02:08:45;;;;;;;32.75;12.65;;;8.60;90.90;;;;;;5043935;28;20048;-72
2021/12/10 02:11:12;;;;;;;25.92;12.48;;;8.50;90.60;;;;;;5047972;28;20384;-72
2021/12/10 02:13:37;;;;;;;27.48;12.07;;;8.50;90.60;;;;;;5052400;28;20029;-72
2021/12/10 02:16:04;;;;;;;28.00;12.05;;;8.60;90.60;;;;;;5041679;28;20036;-71
2021/12/10 02:18:30;;;;;;;33.58;15.00;;;8.60;90.60;;;;;;5036665;28;20124;-71
2021/12/10 02:21:02;;;;;;;29.48;14.70;;;8.60;90.60;;;;;;5041318;28;20111;-72
2021/12/10 02:23:34;;;;;;;29.70;12.13;;;8.50;90.60;;;;;;5051570;28;20025;-72
2021/12/10 02:26:05;;;;;;;27.75;11.80;;;8.50;90.50;;;;;;5044489;28;20108;-72
2021/12/10 02:28:32;;;;;;;29.40;14.85;;;8.50;90.60;;;;;;5033266;28;20064;-72
2021/12/10 02:30:59;;;;;;;22.52;12.52;;;8.50;90.60;;;;;;5051452;28;20025;-72
2021/12/10 02:33:25;;;;;;;25.40;12.30;;;8.50;90.60;;;;;;5049932;28;20526;-72
2021/12/10 02:35:51;;;;;;;29.08;13.90;;;8.50;90.60;;;;;;5039769;28;20031;-72
2021/12/10 02:38:18;;;;;;;34.72;14.95;;;8.50;90.50;;;;;;5052090;28;20037;-72
2021/12/10 02:40:46;;;;;;;30.75;13.75;;;8.50;90.50;;;;;;5050922;28;20060;-72
2021/12/10 02:43:13;;;;;;;33.33;14.63;;;8.50;90.50;;;;;;5043573;28;20033;-72
2021/12/10 02:45:41;;;;;;;32.05;14.27;;;8.50;90.50;;;;;;5036743;28;20083;-72
2021/12/10 02:48:07;;;;;;;26.65;15.25;;;8.50;90.60;;;;;;5040828;28;20059;-72
2021/12/10 02:50:34;;;;;;;32.53;14.07;;;8.40;90.60;;;;;;5051705;28;20045;-72
2021/12/10 02:53:00;;;;;;;28.70;15.05;;;8.50;90.60;;;;;;5042439;28;20087;-72
2021/12/10 02:55:28;;;;;;;39.90;16.67;;;8.40;90.60;;;;;;5035076;28;20465;-72
2021/12/10 02:57:57;;;;;;;31.58;13.30;;;8.40;90.60;;;;;;5051293;28;20029;-72
2021/12/10 03:00:31;;;;;;;40.72;16.77;;;8.40;90.60;;;;;;5036034;28;20041;-72
2021/12/10 03:02:57;;;;;;;26.80;14.02;;;8.40;90.70;;;;;;5051765;28;20033;-72
2021/12/10 03:05:26;;;;;;;26.40;13.73;;;8.40;90.70;;;;;;5044227;28;20086;-72
2021/12/10 03:07:52;;;;;;;26.75;12.25;;;8.40;90.70;;;;;;5044575;28;20076;-72
2021/12/10 03:10:23;;;;;;;36.75;14.18;;;8.40;90.70;;;;;;5048689;28;20034;-72
2021/12/10 03:12:49;;;;;;;28.10;14.38;;;8.40;90.70;;;;;;5039378;28;20069;-72
2021/12/10 03:15:17;;;;;;;27.20;13.00;;;8.40;90.70;;;;;;5054294;28;20476;-72
2021/12/10 03:17:44;;;;;;;25.80;12.50;;;8.40;90.70;;;;;;5055391;28;20025;-72
2021/12/10 03:20:14;;;;;;;40.45;11.85;;;8.40;90.70;;;;;;5049270;28;20044;-71
2021/12/10 03:22:40;;;;;;;22.27;11.35;;;8.40;90.80;;;;;;5047611;28;20033;-72
2021/12/10 03:25:10;;;;;;;22.58;11.68;;;8.40;90.80;;;;;;5049729;28;20420;-72
2021/12/10 03:27:37;;;;;;;25.73;12.80;;;8.40;91.00;;;;;;5041579;28;20131;-72
2021/12/10 03:30:07;;;;;;;24.33;10.32;;;8.40;90.80;;;;;;5047253;28;20042;-71
2021/12/10 03:32:33;;;;;;;16.60;6.90;;;8.40;90.70;;;;;;5048885;28;20047;-72
2021/12/10 03:35:08;;;;;;;27.75;10.30;;;8.40;90.70;;;;;;5054937;28;20473;-72
2021/12/10 03:37:35;;;;;;;22.27;9.90;;;8.40;90.70;;;;;;5039724;28;20060;-72
2021/12/10 03:40:01;;;;;;;26.33;9.73;;;8.40;90.60;;;;;;5042192;28;20362;-72
2021/12/10 03:42:27;;;;;;;21.25;8.60;;;8.40;90.60;;;;;;5054726;28;20052;-72
2021/12/10 03:44:52;;;;;;;26.17;8.02;;;8.40;90.60;;;;;;5055041;28;20515;-72
2021/12/10 03:47:18;;;;;;;22.02;8.63;;;8.30;90.70;;;;;;5040523;28;20045;-71
2021/12/10 03:49:44;;;;;;;20.02;8.35;;;8.30;90.70;;;;;;5044309;28;20493;-71
2021/12/10 03:52:10;;;;;;;21.90;8.05;;;8.30;90.60;;;;;;5051534;28;20037;-71
2021/12/10 03:54:38;;;;;;;14.23;6.13;;;8.30;90.60;;;;;;5053842;28;20028;-72
2021/12/10 03:57:05;;;;;;;17.17;6.72;;;8.30;90.70;;;;;;5054139;28;20400;-72
2021/12/10 03:59:36;;;;;;;12.13;5.68;;;8.40;90.70;;;;;;5054676;28;20454;-71
2021/12/10 04:02:05;;;;;;;15.85;7.40;;;8.40;90.70;;;;;;5046879;28;20022;-72
2021/12/10 04:04:38;;;;;;;19.00;7.10;;;8.40;90.60;;;;;;5035297;28;20041;-72
2021/12/10 04:07:08;;;;;;;12.52;5.70;;;8.40;90.60;;;;;;5041274;28;20112;-72
2021/12/10 04:09:33;;;;;;;16.85;7.50;;;8.40;90.60;;;;;;5053128;28;20515;-72
2021/12/10 04:12:00;;;;;;;19.52;7.55;;;8.40;90.60;;;;;;5054300;28;20021;-72
2021/12/10 04:14:26;;;;;;;12.32;6.82;;;8.50;90.60;;;;;;5053475;28;20037;-72
2021/12/10 04:16:56;;;;;;;17.08;6.53;;;8.40;90.50;;;;;;5054003;28;20021;-71
2021/12/10 04:19:25;;;;;;;10.20;4.85;;;8.40;90.50;;;;;;5042365;28;20037;-72
2021/12/10 04:21:52;;;;;;;18.10;5.57;;;8.40;90.50;;;;;;5033127;28;20436;-72
2021/12/10 04:24:20;;;;;;;11.00;5.53;;;8.40;90.50;;;;;;5046838;28;20481;-72
2021/12/10 04:26:48;;;;;;;15.20;7.43;;;8.40;90.50;;;;;;5040839;28;20029;-72
2021/12/10 04:29:15;;;;;;;13.70;6.90;;;8.40;90.40;;;;;;5039859;28;20049;-72
2021/12/10 04:31:41;;;;;;;12.50;5.97;;;8.40;90.30;;;;;;5035897;28;20033;-73
2021/12/10 04:34:07;;;;;;;12.85;7.40;;;8.40;90.40;;;;;;5035938;28;20037;-73
2021/12/10 04:36:34;;;;;;;10.82;5.70;;;8.40;90.40;;;;;;5032510;28;20033;-72
2021/12/10 04:39:00;;;;;;;14.65;7.30;;;8.50;90.50;;;;;;5036034;28;20056;-72
2021/12/10 04:41:26;;;;;;;18.85;6.90;;;8.40;90.40;;;;;;5039068;28;20091;-72
2021/12/10 04:43:52;;;;;;;18.55;7.90;;;8.50;90.40;;;;;;5032898;28;20401;-72
2021/12/10 04:46:18;;;;;;;12.52;5.32;;;8.50;90.40;;;;;;5042478;28;20030;-72
2021/12/10 04:48:46;;;;;;;28.73;8.98;;;8.40;90.30;;;;;;5033166;28;20069;-73
2021/12/10 04:51:12;;;;;;;21.77;7.70;;;8.50;90.30;;;;;;5034102;28;20506;-73
2021/12/10 04:53:38;;;;;;;17.13;8.50;;;8.50;90.20;;;;;;5032862;28;20087;-72
2021/12/10 04:56:04;;;;;;;21.08;7.95;;;8.50;90.20;;;;;;5032818;28;20037;-73
2021/12/10 04:58:30;;;;;;;14.00;7.10;;;8.50;90.10;;;;;;5032251;28;20030;-72
2021/12/10 05:00:55;;;;;;;12.40;6.40;;;8.40;90.00;;;;;;5032561;28;20049;-73
2021/12/10 05:03:21;;;;;;;21.35;8.55;;;8.40;90.10;;;;;;5035461;28;20025;-72
2021/12/10 05:05:47;;;;;;;17.15;9.48;;;8.40;90.00;;;;;;5037525;28;20492;-74
2021/12/10 05:08:14;;;;;;;19.33;8.57;;;8.40;90.10;;;;;;5035395;28;20049;-73
2021/12/10 05:10:40;;;;;;;28.67;10.07;;;8.40;90.10;;;;;;5032300;28;20108;-73
2021/12/10 05:13:06;;;;;;;23.38;7.70;;;8.30;90.10;;;;;;5033453;28;20025;-73
2021/12/10 05:15:34;;;;;;;20.77;10.40;;;8.30;90.10;;;;;;5031888;28;20505;-72
2021/12/10 05:18:00;;;;;;;23.98;10.35;;;8.30;90.10;;;;;;5031434;28;20025;-73
2021/12/10 05:20:32;;;;;;;22.02;10.73;;;8.30;90.00;;;;;;5035119;28;20057;-73
2021/12/10 05:22:58;;;;;;;31.17;10.90;;;8.30;90.00;;;;;;5045938;28;20033;-72
2021/12/10 05:25:28;;;;;;;25.05;10.45;;;8.30;90.00;;;;;;5043854;28;20030;-72
2021/12/10 05:27:54;;;;;;;20.55;10.57;;;8.30;90.00;;;;;;5035457;28;20445;-72
2021/12/10 05:30:23;;;;;;;26.52;10.90;;;8.20;90.00;;;;;;5042166;28;20033;-72
2021/12/10 05:32:49;;;;;;;17.17;8.85;;;8.20;89.70;;;;;;5044982;28;20048;-72
2021/12/10 05:35:16;;;;;;;13.70;8.65;;;8.20;89.60;;;;;;5043932;28;20037;-72
2021/12/10 05:37:42;;;;;;;18.30;10.77;;;8.20;89.50;;;;;;5048085;28;20151;-72
2021/12/10 05:40:12;;;;;;;21.10;11.52;;;8.20;89.50;;;;;;5043561;28;20033;-72
2021/12/10 05:42:39;;;;;;;20.92;10.48;;;8.20;89.40;;;;;;5052410;28;20041;-72
2021/12/10 05:45:06;;;;;;;19.15;9.07;;;8.10;89.30;;;;;;5049040;28;20040;-72
2021/12/10 05:47:31;;;;;;;21.27;9.90;;;8.10;89.40;;;;;;5043724;28;20069;-72
2021/12/10 05:49:57;;;;;;;19.25;10.60;;;8.10;89.40;;;;;;5047552;28;20105;-72
2021/12/10 05:52:24;;;;;;;24.13;10.07;;;8.20;89.30;;;;;;5050419;28;20055;-72
2021/12/10 05:54:52;;;;;;;21.23;11.13;;;8.10;89.40;;;;;;5036047;28;20104;-72
2021/12/10 05:57:18;;;;;;;25.75;11.35;;;8.10;89.30;;;;;;5037636;28;20029;-72
2021/12/10 05:59:43;;;;;;;22.95;12.48;;;8.10;89.20;;;;;;5031336;28;20041;-72
2021/12/10 06:02:09;;;;;;;21.13;10.90;;;8.00;89.10;;;;;;5037292;28;20080;-72
2021/12/10 06:04:35;;;;;;;22.30;11.45;;;8.00;89.10;;;;;;5040242;28;20029;-72
2021/12/10 06:07:02;;;;;;;21.35;11.20;;;8.00;89.20;;;;;;5038889;28;20072;-72
2021/12/10 06:09:28;;;;;;;29.38;11.10;;;8.00;89.20;;;;;;5038515;28;20454;-72
2021/12/10 06:11:54;;;;;;;26.25;13.02;;;7.90;89.40;;;;;;5040859;28;20121;-72
2021/12/10 06:14:20;;;;;;;22.23;11.40;;;7.90;89.50;;;;;;5036478;28;20080;-72
2021/12/10 06:16:46;;;;;;;33.85;14.23;;;7.90;89.60;;;;;;5027859;28;20100;-72
2021/12/10 06:19:12;;;;;;;29.65;13.50;;;7.90;89.80;;;;;;5032046;28;20056;-70
2021/12/10 06:21:39;;;;;;;31.55;13.93;;;7.90;90.00;;;;;;5031897;28;20493;-71
2021/12/10 06:24:05;;;;;;;29.80;15.85;;;7.90;90.00;;;;;;5031959;28;20564;-71
2021/12/10 06:26:31;;;;;;;34.30;16.83;;;7.90;90.10;;;;;;5030394;28;20033;-72
2021/12/10 06:28:58;;;;;;;20.50;10.80;;;7.90;90.20;;;;;;5039255;28;20083;-72
2021/12/10 06:31:24;;;;;;;29.90;13.23;;;7.90;90.20;;;;;;5036119;28;20072;-74
2021/12/10 06:33:50;;;;;;;23.42;11.57;;;7.90;90.20;;;;;;5039539;28;20021;-73
2021/12/10 06:36:19;;;;;;;19.33;10.15;;;7.80;90.20;;;;;;5033544;28;20459;-73
2021/12/10 06:38:46;;;;;;;28.73;11.52;;;7.90;90.20;;;;;;5037735;28;20476;-74
2021/12/10 06:41:13;;;;;;;29.48;14.43;;;7.80;90.20;;;;;;5034657;28;20521;-73
2021/12/10 06:43:40;;;;;;;21.52;12.98;;;7.80;90.20;;;;;;5036863;28;20412;-73
2021/12/10 06:46:06;;;;;;;20.67;12.80;;;7.80;90.30;;;;;;5038503;28;20029;-73
2021/12/10 06:48:32;;;;;;;28.80;13.32;;;7.80;90.50;;;;;;5034946;28;20045;-72
2021/12/10 06:51:02;;;;;;;17.58;11.07;;;7.80;90.30;;;;;;5039250;28;20025;-73
2021/12/10 06:53:30;;;;;;;19.55;10.52;;;7.70;90.30;;;;;;5035030;28;20095;-73
2021/12/10 06:55:57;;;;;;;21.88;13.30;;;7.70;90.30;;;;;;5034383;28;20079;-73
2021/12/10 06:58:23;;;;;;;20.70;12.32;;;7.70;90.30;;;;;;5042714;28;20036;-73
2021/12/10 07:00:53;;;;;;;22.13;12.90;;;7.70;90.20;;;;;;5035929;28;20036;-75
2021/12/10 07:03:24;;;;;;;16.95;9.35;;;7.70;90.20;;;;;;5033567;28;20029;-72
2021/12/10 07:05:52;;;;;;;18.73;11.15;;;7.70;90.20;;;;;;5033631;28;20033;-74
2021/12/10 07:08:21;;;;;;;17.13;10.75;;;7.70;90.20;;;;;;5034302;28;20052;-73
2021/12/10 07:10:47;;;;;;;17.88;8.23;;;7.60;90.10;;;;;;5030016;28;20022;-73
2021/12/10 07:13:13;;;;;;;18.58;9.95;;;7.60;90.00;;;;;;5040186;28;20510;-72
2021/12/10 07:15:42;;;;;;;17.75;10.38;;;7.60;90.10;;;;;;5037254;28;20151;-72
2021/12/10 07:18:08;;;;;;;16.67;8.48;;;7.60;90.10;;;;;;5036031;28;20026;-72
2021/12/10 07:20:34;;;;;;;14.98;9.15;;;7.60;90.10;;;;;;5034463;28;20033;-72
2021/12/10 07:23:00;;;;;;;13.80;8.35;;;7.60;90.10;;;;;;5034303;28;20045;-72
2021/12/10 07:25:26;;;;;;;25.20;9.73;;;7.60;90.00;;;;;;5033941;28;20455;-72
2021/12/10 07:27:52;;;;;;;15.90;8.30;;;7.60;89.90;;;;;;5036786;28;20057;-72
2021/12/10 07:30:21;;;;;;;11.30;5.60;;;7.60;89.90;;;;;;5035088;28;20036;-72
2021/12/10 07:32:47;;;;;;;12.05;7.53;;;7.60;90.00;;;;;;5040624;28;20064;-72
2021/12/10 07:35:14;;;;;;;14.45;7.78;;;7.60;90.00;;;;;;5048311;28;20037;-74
2021/12/10 07:37:39;;;;;;;17.10;8.20;;;7.50;90.00;;;;;;5039275;28;20068;-73
2021/12/10 07:40:09;;;;;;;13.75;7.85;;;7.50;90.00;;;;;;5043954;28;20046;-73
2021/12/10 07:42:35;;;;;;;13.27;7.47;;;7.50;90.00;;;;;;5034950;28;20504;-72
2021/12/10 07:45:03;;;;;;;15.95;8.15;;;7.60;90.10;;;;;;5047329;28;20049;-72
2021/12/10 07:47:34;;;;;;;14.75;7.82;;;7.50;90.10;;;;;;5033762;28;20088;-72
2021/12/10 07:50:00;;;;;;;13.85;6.78;;;7.50;90.10;;;;;;5047698;28;20041;-74
2021/12/10 07:52:28;;;;;;;14.27;7.38;;;7.60;90.20;;;;;;5045293;28;20036;-72
2021/12/10 07:54:55;;;;;;;18.05;8.10;;;7.50;90.20;;;;;;5047091;28;20108;-72
2021/12/10 07:57:24;;;;;;;12.35;7.53;;;7.50;90.50;;;;;;5048342;28;20029;-73
2021/12/10 07:59:50;;;;;;;15.45;7.35;;;7.50;90.30;;;;;;5053741;28;20441;-72
2021/12/10 08:02:16;;;;;;;11.77;5.10;;;7.60;90.30;;;;;;5040898;28;20103;-73
2021/12/10 08:04:42;;;;;;;15.30;8.15;;;7.50;90.40;;;;;;5054395;28;20072;-72
2021/12/10 08:07:10;;;;;;;12.80;7.10;;;7.50;90.30;;;;;;5053125;28;20057;-72
2021/12/10 08:09:36;;;;;;;12.18;7.15;;;7.50;90.40;;;;;;5045220;28;20077;-72
2021/12/10 08:12:02;;;;;;;12.82;5.20;;;7.50;90.40;;;;;;5047409;28;20068;-74
2021/12/10 08:14:27;;;;;;;13.05;6.45;;;7.50;90.50;;;;;;5042953;28;20032;-72
2021/12/10 08:16:53;;;;;;;12.10;7.25;;;7.50;90.50;;;;;;5053895;28;20029;-71
2021/12/10 08:19:19;;;;;;;8.20;5.07;;;7.50;90.50;;;;;;5054069;28;20043;-71
2021/12/10 08:21:47;;;;;;;11.77;5.28;;;7.50;90.50;;;;;;5053370;28;20104;-71
2021/12/10 08:24:13;;;;;;;10.93;6.25;;;7.50;90.50;;;;;;5042187;28;20084;-73
2021/12/10 08:26:39;;;;;;;13.63;6.78;;;7.40;90.40;;;;;;5052704;28;20056;-71
2021/12/10 08:29:08;;;;;;;13.38;7.95;;;7.40;90.40;;;;;;5041890;28;20469;-72
2021/12/10 08:31:34;;;;;;;11.27;6.82;;;7.40;90.40;;;;;;5035998;28;20504;-71
2021/12/10 08:34:00;;;;;;;11.13;6.55;;;7.40;90.40;;;;;;5046383;28;20036;-72
2021/12/10 08:36:28;;;;;;;10.98;6.40;;;7.40;90.40;;;;;;5052672;28;20120;-71
2021/12/10 08:38:54;;;;;;;11.77;5.07;;;7.40;90.40;;;;;;5053600;28;20043;-72
2021/12/10 08:41:23;;;;;;;15.20;6.05;;;7.40;90.40;;;;;;5052404;28;20029;-71
2021/12/10 08:43:49;;;;;;;16.80;5.82;;;7.40;90.40;;;;;;5041353;28;20397;-72
2021/12/10 08:46:15;;;;;;;11.95;6.57;;;7.40;90.40;;;;;;5046633;28;20033;-74
2021/12/10 08:48:43;;;;;;;10.27;6.20;;;7.30;90.70;;;;;;5032492;28;20454;-71
2021/12/10 08:51:25;;;;;;;10.82;6.05;;;7.30;90.30;;;;;;5033519;28;20040;-72
2021/12/10 08:53:51;;;;;;;10.20;5.25;;;7.30;90.30;;;;;;5042725;28;20083;-72
2021/12/10 08:56:17;;;;;;;9.38;5.32;;;7.30;90.40;;;;;;5047609;28;20061;-72
2021/12/10 08:58:43;;;;;;;14.10;5.78;;;7.30;90.40;;;;;;5035519;28;20033;-72
2021/12/10 09:01:16;;;;;;;10.68;6.35;;;7.30;90.40;;;;;;5035258;28;20033;-72
2021/12/10 09:03:44;;;;;;;8.48;4.82;;;7.30;90.40;;;;;;5034933;28;20025;-72
2021/12/10 09:06:11;;;;;;;13.85;5.80;;;7.30;90.40;;;;;;5032041;28;20079;-72
2021/12/10 09:08:38;;;;;;;12.20;4.95;;;7.20;90.30;;;;;;5035960;28;20076;-72
2021/12/10 09:11:05;;;;;;;11.98;6.10;;;7.20;90.40;;;;;;5034271;28;20122;-72
2021/12/10 09:13:31;;;;;;;10.52;5.20;;;7.20;90.40;;;;;;5046409;28;20045;-72
2021/12/10 09:16:00;;;;;;;8.32;3.42;;;7.20;90.40;;;;;;5037876;28;20030;-72
2021/12/10 09:18:27;;;;;;;13.38;7.13;;;7.30;90.40;;;;;;5034492;28;20487;-73
2021/12/10 09:20:57;;;;;;;11.35;6.05;;;7.20;90.40;;;;;;5032163;28;20034;-72
2021/12/10 09:23:26;;;;;;;8.57;4.10;;;7.20;90.30;;;;;;5033869;28;20029;-72
2021/12/10 09:25:55;;;;;;;7.90;4.40;;;7.20;90.30;;;;;;5036130;28;20030;-72
2021/12/10 09:28:21;;;;;;;12.15;5.72;;;7.20;90.30;;;;;;5041363;28;20045;-72
2021/12/10 09:30:51;;;;;;;12.98;6.03;;;7.30;90.30;;;;;;5040443;28;20025;-72
2021/12/10 09:33:17;;;;;;;9.45;5.30;;;7.30;90.30;;;;;;5032399;28;20544;-72
2021/12/10 09:35:43;;;;;;;10.20;6.15;;;7.30;90.30;;;;;;5032264;28;20029;-72
2021/12/10 09:38:09;;;;;;;7.75;4.80;;;7.20;90.20;;;;;;5032073;28;20068;-72
2021/12/10 09:40:39;;;;;;;8.95;4.47;;;7.30;90.30;;;;;;5043845;28;20057;-73
2021/12/10 09:43:08;;;;;;;10.07;5.60;;;7.20;90.30;;;;;;5046763;28;20470;-71
2021/12/10 09:45:37;;;;;;;14.60;5.55;;;7.20;90.20;;;;;;5031954;28;20511;-71
2021/12/10 09:48:04;;;;;;;12.88;6.78;;;7.20;90.20;;;;;;5032350;28;20413;-72
2021/12/10 09:50:33;;;;;;;10.10;5.32;;;7.20;90.20;;;;;;5034735;28;20071;-72
2021/12/10 09:52:59;;;;;;;12.57;5.00;;;7.20;90.30;;;;;;5031699;28;20021;-71
2021/12/10 09:55:27;;;;;;;12.05;5.68;;;7.30;90.30;;;;;;5031889;28;20397;-72
2021/12/10 09:57:54;;;;;;;8.32;4.72;;;7.30;90.30;;;;;;5031643;28;20555;-71
2021/12/10 10:00:19;;;;;;;8.30;4.93;;;7.30;90.30;;;;;;5033859;28;20033;-71
2021/12/10 10:02:45;;;;;;;7.20;2.83;;;7.30;90.40;;;;;;5033359;28;20032;-71
2021/12/10 10:05:12;;;;;;;7.32;4.05;;;7.30;90.40;;;;;;5032922;28;20120;-72
2021/12/10 10:07:38;;;;;;;11.55;6.28;;;7.30;90.30;;;;;;5033871;28;20033;-72
2021/12/10 10:10:11;;;;;;;6.53;4.30;;;7.30;90.30;;;;;;5034181;28;20461;-72
2021/12/10 10:12:40;;;;;;;9.02;4.72;;;7.30;90.30;;;;;;5032806;28;20029;-72
2021/12/10 10:15:12;;;;;;;5.97;2.83;;;7.30;90.30;;;;;;5038597;28;20534;-72
2021/12/10 10:17:38;;;;;;;7.43;4.38;;;7.30;90.40;;;;;;5038215;28;20031;-70
2021/12/10 10:20:07;;;;;;;9.27;4.40;;;7.30;90.40;;;;;;5037873;28;20473;-72
2021/12/10 10:22:33;;;;;;;6.03;2.92;;;7.40;90.40;;;;;;5040052;28;20036;-71
2021/12/10 10:24:59;;;;;;;3.67;1.77;;;7.40;90.50;;;;;;5035762;28;20033;-71
2021/12/10 10:27:30;;;;;;;9.15;3.65;;;7.30;90.50;;;;;;5035022;28;20163;-71
2021/12/10 10:30:06;;;;;;;6.38;4.22;;;7.40;90.60;;;;;;5038286;28;20370;-71
2021/12/10 10:32:34;;;;;;;4.80;3.30;;;7.40;90.50;;;;;;5038312;28;20034;-71
2021/12/10 10:35:06;;;;;;;4.03;2.63;;;7.40;90.50;;;;;;5037472;28;20105;-72
2021/12/10 10:37:33;;;;;;;11.80;6.40;;;7.40;90.60;;;;;;5038145;28;20112;-71
2021/12/10 10:39:59;;;;;;;10.02;5.82;;;7.40;90.50;;;;;;5038613;28;20029;-71
2021/12/10 10:42:30;;;;;;;9.68;5.63;;;7.40;90.40;;;;;;5055271;28;20032;-71
2021/12/10 10:45:02;;;;;;;10.85;5.32;;;7.50;90.40;;;;;;5043431;28;20442;-71
2021/12/10 10:47:29;;;;;;;8.13;4.55;;;7.50;90.40;;;;;;5036156;28;20116;-71
2021/12/10 10:50:16;;;;;;;7.80;3.83;;;7.40;90.40;;;;;;5039077;28;20041;-71
2021/12/10 10:52:58;;;;;;;4.35;2.42;;;7.50;90.50;;;;;;5038157;28;20043;-71
2021/12/10 10:55:39;;;;;;;23.85;5.82;;;7.50;90.50;;;;;;5034189;28;20029;-71
2021/12/10 10:58:09;;;;;;;7.68;4.97;;;7.60;90.40;;;;;;5035287;28;20030;-71
2021/12/10 11:00:59;;;;;;;8.82;5.30;;;7.60;90.40;;;;;;5035268;28;20025;-70
2021/12/10 11:03:37;;;;;;;10.35;4.55;;;7.60;90.40;;;;;;5038581;28;20072;-72
2021/12/10 11:06:08;;;;;;;8.93;5.45;;;7.60;90.30;;;;;;5054075;28;20033;-71
2021/12/10 11:08:45;;;;;;;9.00;5.47;;;7.60;90.30;;;;;;5037376;28;20064;-72
2021/12/10 11:11:11;;;;;;;8.32;3.97;;;7.60;90.30;;;;;;5047591;28;20060;-72
2021/12/10 11:13:38;;;;;;;12.15;5.22;;;7.70;90.30;;;;;;5035176;28;20485;-73
2021/12/10 11:16:07;;;;;;;11.25;5.80;;;7.70;90.20;;;;;;5047800;28;20037;-73
2021/12/10 11:18:50;;;;;;;13.93;5.05;;;7.70;90.20;;;;;;5054396;28;20036;-74
2021/12/10 11:21:31;;;;;;;6.93;3.50;;;7.70;90.20;;;;;;5042264;28;20171;-74
2021/12/10 11:24:19;;;;;;;8.50;5.38;;;7.80;90.20;;;;;;5054812;28;20079;-73
2021/12/10 11:26:48;;;;;;;9.10;5.10;;;7.80;90.30;;;;;;5048500;28;20033;-73
2021/12/10 11:29:50;;;;;;;7.57;4.88;;;7.90;90.20;;;;;;5030796;28;20496;-73
2021/12/10 11:32:18;;;;;;;6.85;3.53;;;7.90;90.20;;;;;;5023216;28;20492;-73
2021/12/10 11:35:06;;;;;;;8.43;4.25;;;7.90;90.10;;;;;;5046722;28;20037;-73
2021/12/10 11:37:55;;;;;;;9.13;5.25;;;7.90;90.20;;;;;;5033942;28;20033;-73
2021/12/10 11:40:35;;;;;;;10.93;5.15;;;7.90;90.00;;;;;;5038690;28;20029;-73
2021/12/10 11:43:32;;;;;;;10.27;4.50;;;8.00;90.00;;;;;;5034491;28;20033;-73
2021/12/10 11:48:47;;;;;;;7.43;4.70;;;8.00;90.20;;;;;;5041808;28;20042;-73
2021/12/10 11:51:17;;;;;;;7.88;3.88;;;8.00;90.20;;;;;;5035152;28;20061;-73
2021/12/10 11:53:49;;;;;;;7.38;4.38;;;8.10;90.20;;;;;;5035121;28;20033;-73
2021/12/10 11:56:25;;;;;;;7.93;4.90;;;8.10;90.10;;;;;;5032480;28;20508;-74
2021/12/10 11:59:11;;;;;;;14.32;4.47;;;8.00;90.00;;;;;;5046358;28;20070;-74
2021/12/10 12:02:00;;;;;;;6.95;2.00;;;8.10;90.10;;;;;;5033661;28;20140;-72
2021/12/10 12:04:30;;;;;;;11.10;4.47;;;8.10;90.20;;;;;;5036672;28;20018;-72
2021/12/10 12:07:14;;;;;;;10.52;5.07;;;8.10;90.10;;;;;;5033267;28;20437;-72
2021/12/10 12:09:41;;;;;;;;;;;8.10;90.20;;;;;;5033872;28;20481;-72
2021/12/10 12:12:13;;;;;;;9.13;4.53;;;8.10;90.20;;;;;;5032902;28;19913;-72
2021/12/10 12:14:47;;;;;;;12.02;5.63;;;8.20;90.20;;;;;;5033454;28;20080;-73
2021/12/10 12:17:34;;;;;;;8.25;4.72;;;8.20;90.10;;;;;;5039858;28;20442;-72
2021/12/10 12:20:00;;;;;;;8.75;4.35;;;8.20;90.10;;;;;;5035453;28;20030;-72
2021/12/10 12:25:29;;;;;;;9.30;4.13;;;8.30;89.90;;;;;;5033212;28;20069;-73
2021/12/10 12:28:12;;;;;;;;;;;8.30;90.10;;;;;;5032649;28;20052;-72
2021/12/10 12:30:52;;;;;;;8.00;4.05;;;8.30;90.10;;;;;;5034392;28;20044;-72
2021/12/10 12:33:18;;;;;;;2.35;1.45;;;8.30;90.00;;;;;;5032161;28;20086;-72
2021/12/10 12:35:45;;;;;;;7.10;4.25;;;8.30;90.00;;;;;;5033547;28;20033;-72
2021/12/10 12:38:15;;;;;;;7.97;4.70;;;8.30;90.00;;;;;;5034194;28;20025;-72
2021/12/10 12:40:43;;;;;;;6.82;3.58;;;8.30;90.00;;;;;;5032299;28;20022;-73
2021/12/10 12:43:09;;;;;;;9.50;5.38;;;8.30;90.00;;;;;;5032225;28;20103;-72
2021/12/10 12:45:37;;;;;;;8.98;4.32;;;8.40;89.80;;;;;;5033819;28;20465;-72
2021/12/10 12:48:09;;;;;;;7.43;4.07;;;8.40;89.60;;;;;;5030655;28;20060;-72
2021/12/10 12:50:36;;;;;;;9.70;4.55;;;8.40;89.70;;;;;;5033793;28;20033;-72
2021/12/10 12:53:19;;;;;;;10.07;5.10;;;8.40;89.40;;;;;;5032543;28;20101;-72
2021/12/10 12:55:58;;;;;;;9.47;3.47;;;8.50;89.50;;;;;;5031142;28;20064;-72
2021/12/10 12:58:37;;;;;;;10.07;5.35;;;8.50;89.30;;;;;;5035068;28;20025;-72
2021/12/10 13:01:09;;;;;;;6.90;3.25;;;8.50;89.40;;;;;;5031957;28;20025;-72
2021/12/10 13:03:57;;;;;;;7.18;3.05;;;8.50;89.70;;;;;;5030006;28;20553;-72
2021/12/10 13:06:28;;;;;;;10.48;2.97;;;8.50;89.90;;;;;;5032259;28;20029;-71
2021/12/10 13:09:41;;;;;;;8.40;4.20;;;8.50;89.90;;;;;;5031129;28;20045;-73
2021/12/10 13:12:13;;;;;;;6.72;2.78;;;8.50;89.50;;;;;;5042217;28;20036;-74
2021/12/10 13:14:55;;;;;;;10.07;4.05;;;8.50;89.50;;;;;;5031389;28;20045;-74